Time;durP1;ratioP1;P1;durP2;ratioP2;P2;SDS_P1;SDS_P2;PMS_P1;PMS_P2;Temp;Humidity;BMP_temperature;BMP_pressure;BME280_temperature;BME280_humidity;BME280_pressure;Samples;Min_cycle;Max_cycle;Signal;HPM_P1;HPM_P2
2023/10/05 00:00:37;;;;;;;9.05;2.60;;;14.30;99.90;;;;;;5072453;28;20101;-81
2023/10/05 00:03:05;;;;;;;7.15;2.40;;;14.30;99.90;;;;;;5076898;28;20407;-82
2023/10/05 00:05:35;;;;;;;9.45;2.75;;;14.30;99.90;;;;;;5079458;28;20047;-81
2023/10/05 00:08:03;;;;;;;11.75;3.10;;;14.30;99.90;;;;;;5082777;28;20051;-81
2023/10/05 00:10:30;;;;;;;10.25;2.85;;;14.30;99.90;;;;;;5090986;28;20050;-81
2023/10/05 00:13:00;;;;;;;9.43;2.83;;;14.30;99.90;;;;;;5077838;28;20044;-81
2023/10/05 00:15:27;;;;;;;11.30;2.83;;;14.20;99.90;;;;;;5069465;28;20051;-81
2023/10/05 00:17:54;;;;;;;10.90;3.03;;;14.20;99.90;;;;;;5074310;28;20090;-82
2023/10/05 00:20:33;;;;;;;11.00;3.00;;;14.20;99.90;;;;;;5078578;28;20036;-81
2023/10/05 00:23:02;;;;;;;9.05;2.83;;;14.30;99.90;;;;;;5074334;28;20052;-82
2023/10/05 00:25:32;;;;;;;13.45;3.03;;;14.20;99.90;;;;;;5094326;28;20055;-82
2023/10/05 00:28:00;;;;;;;10.15;3.05;;;14.30;99.90;;;;;;5070675;28;20044;-82
2023/10/05 00:30:26;;;;;;;10.30;2.40;;;14.20;99.90;;;;;;5076166;28;20101;-81
2023/10/05 00:32:58;;;;;;;9.70;2.80;;;14.20;99.90;;;;;;5095919;28;20044;-84
2023/10/05 00:35:28;;;;;;;7.80;2.65;;;14.20;99.90;;;;;;5096226;28;20075;-84
2023/10/05 00:37:57;;;;;;;11.38;2.50;;;14.20;99.90;;;;;;5092133;28;20039;-84
2023/10/05 00:40:37;;;;;;;12.80;3.40;;;14.20;99.90;;;;;;5094309;28;20570;-84
2023/10/05 00:43:12;;;;;;;13.02;3.08;;;14.20;99.90;;;;;;5074407;28;20070;-84
2023/10/05 00:45:39;;;;;;;9.13;2.60;;;14.10;99.90;;;;;;5074124;28;20090;-84
2023/10/05 00:48:27;;;;;;;6.95;2.78;;;14.20;99.90;;;;;;5101436;28;20075;-84
2023/10/05 00:51:04;;;;;;;8.60;2.90;;;14.10;99.90;;;;;;5092928;28;20036;-84
2023/10/05 00:53:32;;;;;;;10.25;2.78;;;14.10;99.90;;;;;;5074295;28;20602;-84
2023/10/05 00:56:22;;;;;;;11.45;2.97;;;14.10;99.90;;;;;;5092616;28;20044;-84
2023/10/05 00:58:48;;;;;;;9.15;2.97;;;14.10;99.90;;;;;;5092092;28;20048;-84
2023/10/05 01:01:15;;;;;;;11.13;3.25;;;14.10;99.90;;;;;;5080293;28;20052;-84
2023/10/05 01:06:32;;;;;;;10.88;3.03;;;14.10;99.90;;;;;;5075973;28;20109;-84
2023/10/05 01:09:04;;;;;;;9.23;2.90;;;14.10;99.90;;;;;;5079308;28;20055;-84
2023/10/05 01:11:43;;;;;;;11.13;3.33;;;14.10;99.90;;;;;;5071654;28;20040;-84
2023/10/05 01:14:10;;;;;;;11.68;3.50;;;14.10;99.90;;;;;;5085918;28;20101;-84
2023/10/05 01:16:35;;;;;;;7.95;3.17;;;14.10;99.90;;;;;;5091568;28;20437;-84
2023/10/05 01:19:07;;;;;;;8.18;3.38;;;14.10;99.90;;;;;;5091952;28;20118;-84
2023/10/05 01:21:34;;;;;;;11.20;2.95;;;14.10;99.90;;;;;;5076191;28;20062;-84
2023/10/05 01:24:00;;;;;;;9.70;2.90;;;14.10;99.90;;;;;;5084154;28;20097;-84
2023/10/05 01:26:26;;;;;;;8.05;3.00;;;14.10;99.90;;;;;;5079552;28;20052;-84
2023/10/05 01:28:51;;;;;;;8.70;3.28;;;14.10;99.90;;;;;;5078658;28;20039;-84
2023/10/05 01:31:17;;;;;;;9.98;3.30;;;14.10;99.90;;;;;;5060051;28;20107;-84
2023/10/05 01:33:46;;;;;;;11.85;3.30;;;14.10;99.90;;;;;;5095201;28;20044;-84
2023/10/05 01:36:15;;;;;;;8.32;2.90;;;14.10;99.90;;;;;;5073556;28;20040;-84
2023/10/05 01:38:41;;;;;;;13.15;3.53;;;14.10;99.90;;;;;;5073099;28;20074;-84
2023/10/05 01:41:09;;;;;;;10.55;3.28;;;14.10;99.90;;;;;;5075209;28;20063;-84
2023/10/05 01:43:35;;;;;;;8.32;2.78;;;14.10;99.90;;;;;;5100179;28;20047;-84
2023/10/05 01:46:04;;;;;;;12.48;3.33;;;14.20;99.90;;;;;;5094185;28;20039;-84
2023/10/05 01:48:30;;;;;;;7.72;2.70;;;14.20;99.90;;;;;;5093066;28;20170;-84
2023/10/05 01:51:10;;;;;;;15.57;3.13;;;14.20;99.90;;;;;;5073619;28;20078;-85
2023/10/05 01:53:36;;;;;;;8.90;2.63;;;14.20;99.90;;;;;;5072036;28;20048;-84
2023/10/05 01:56:03;;;;;;;9.00;2.63;;;14.20;99.90;;;;;;5076616;28;20078;-84
2023/10/05 01:58:34;;;;;;;9.55;3.05;;;14.20;99.90;;;;;;5075416;28;20036;-84
2023/10/05 02:01:00;;;;;;;10.82;3.13;;;14.20;99.90;;;;;;5080850;28;20044;-82
2023/10/05 02:03:26;;;;;;;6.90;2.83;;;14.20;99.90;;;;;;5092578;28;20048;-82
2023/10/05 02:05:58;;;;;;;10.32;3.03;;;14.20;99.90;;;;;;5084888;28;20122;-82
2023/10/05 02:08:27;;;;;;;10.00;2.90;;;14.20;99.90;;;;;;5077636;28;20048;-82
2023/10/05 02:10:53;;;;;;;9.85;3.05;;;14.20;99.90;;;;;;5075499;28;20048;-82
2023/10/05 02:13:19;;;;;;;9.95;2.97;;;14.10;99.90;;;;;;5073925;28;20051;-82
2023/10/05 02:15:48;;;;;;;8.63;2.70;;;14.10;99.90;;;;;;5073270;28;20056;-82
2023/10/05 02:18:26;;;;;;;8.35;3.15;;;14.10;99.90;;;;;;5086185;28;20566;-82
2023/10/05 02:21:09;;;;;;;8.10;3.15;;;14.20;99.90;;;;;;5082390;28;20067;-82
2023/10/05 02:23:41;;;;;;;8.45;2.92;;;14.20;99.90;;;;;;5074383;28;20048;-82
2023/10/05 02:27:09;;;;;;;9.80;3.28;;;14.20;99.90;;;;;;5073220;28;20107;-82
2023/10/05 02:28:55;;;;;;;9.70;3.30;;;14.20;99.90;;;;;;5060907;28;20556;-82
2023/10/05 02:31:21;;;;;;;9.35;3.40;;;14.10;99.90;;;;;;5104307;28;20100;-82
2023/10/05 02:33:47;;;;;;;12.23;3.42;;;14.10;99.90;;;;;;5077950;28;20420;-82
2023/10/05 02:36:27;;;;;;;9.48;3.90;;;14.10;99.90;;;;;;5094339;28;20791;-82
2023/10/05 02:38:56;;;;;;;10.43;3.75;;;14.10;99.90;;;;;;5055568;28;20134;-82
2023/10/05 02:41:37;;;;;;;9.02;3.35;;;14.10;99.90;;;;;;5074587;28;20048;-82
2023/10/05 02:44:08;;;;;;;10.43;3.35;;;14.10;99.90;;;;;;5069231;28;20047;-82
2023/10/05 02:46:33;;;;;;;9.43;3.15;;;14.00;99.90;;;;;;5094391;28;20514;-82
2023/10/05 02:48:59;;;;;;;12.38;3.47;;;14.00;99.90;;;;;;5071674;28;20044;-82
2023/10/05 02:51:26;;;;;;;9.63;3.33;;;14.00;99.90;;;;;;5076861;28;20040;-82
2023/10/05 02:54:04;;;;;;;9.73;3.88;;;14.00;99.90;;;;;;5070945;28;20062;-82
2023/10/05 02:56:33;;;;;;;11.43;3.20;;;14.00;99.90;;;;;;5095685;28;20044;-82
2023/10/05 02:59:03;;;;;;;9.45;3.50;;;14.00;99.90;;;;;;5083361;28;20044;-82
2023/10/05 03:01:32;;;;;;;12.45;4.03;;;14.00;99.90;;;;;;5079370;28;20537;-82
2023/10/05 03:04:03;;;;;;;13.88;3.60;;;14.00;99.90;;;;;;5076177;28;20433;-82
2023/10/05 03:06:28;;;;;;;10.30;3.53;;;14.00;99.90;;;;;;5096392;28;20118;-82
2023/10/05 03:08:58;;;;;;;9.23;3.97;;;14.00;99.90;;;;;;5072366;28;20048;-82
2023/10/05 03:11:25;;;;;;;9.18;3.20;;;14.00;99.90;;;;;;5071318;28;20055;-82
2023/10/05 03:13:51;;;;;;;10.52;3.45;;;14.00;99.90;;;;;;5072582;28;20043;-82
2023/10/05 03:16:17;;;;;;;11.15;3.85;;;14.00;99.90;;;;;;5075758;28;20052;-82
2023/10/05 03:18:43;;;;;;;12.10;3.53;;;14.00;99.90;;;;;;5070931;28;20048;-82
2023/10/05 03:21:13;;;;;;;9.70;3.38;;;14.00;99.90;;;;;;5074926;28;20120;-82
2023/10/05 03:23:41;;;;;;;10.63;3.95;;;14.00;99.90;;;;;;5076958;28;20483;-82
2023/10/05 03:26:10;;;;;;;;;;;14.00;99.90;;;;;;5071811;28;20040;-82
2023/10/05 03:28:37;;;;;;;10.73;3.20;;;13.90;99.90;;;;;;5060281;28;19927;-82
2023/10/05 03:31:12;;;;;;;10.82;3.45;;;13.90;99.90;;;;;;5070763;28;20506;-82
2023/10/05 03:33:39;;;;;;;10.70;3.30;;;13.90;99.90;;;;;;5068458;28;20132;-82
2023/10/05 03:36:13;;;;;;;7.93;3.25;;;13.90;99.90;;;;;;5097013;28;20032;-82
2023/10/05 03:38:41;;;;;;;11.65;3.60;;;13.90;99.90;;;;;;5072919;28;21822;-82
2023/10/05 03:41:12;;;;;;;12.15;3.85;;;13.90;99.90;;;;;;5072716;28;20048;-83
2023/10/05 03:43:38;;;;;;;10.70;3.30;;;13.90;99.90;;;;;;5095003;28;20399;-82
2023/10/05 03:46:08;;;;;;;12.23;3.75;;;13.90;99.90;;;;;;5104328;28;20051;-82
2023/10/05 03:48:41;;;;;;;9.88;3.35;;;13.90;99.90;;;;;;5080852;28;20139;-82
2023/10/05 03:51:15;;;;;;;9.20;3.50;;;13.90;99.90;;;;;;5073488;28;20132;-82
2023/10/05 03:53:48;;;;;;;11.30;3.63;;;13.90;99.90;;;;;;5071972;28;20039;-82
2023/10/05 03:56:23;;;;;;;10.80;3.65;;;13.90;99.90;;;;;;5073433;28;20082;-82
2023/10/05 03:58:52;;;;;;;11.98;3.70;;;14.00;99.90;;;;;;5077631;28;20051;-82
2023/10/05 04:01:18;;;;;;;12.27;3.58;;;14.00;99.90;;;;;;5100489;28;20070;-82
2023/10/05 04:03:46;;;;;;;15.82;3.83;;;14.00;99.90;;;;;;5077043;28;20267;-82
2023/10/05 04:06:28;;;;;;;14.07;4.00;;;14.00;99.90;;;;;;5091362;28;20074;-82
2023/10/05 04:09:00;;;;;;;11.95;3.78;;;14.00;99.90;;;;;;5070552;28;20040;-82
2023/10/05 04:11:26;;;;;;;9.75;3.50;;;14.00;99.90;;;;;;5081436;28;20051;-82
2023/10/05 04:13:55;;;;;;;13.95;3.88;;;14.00;99.90;;;;;;5075296;28;20521;-82
2023/10/05 04:16:28;;;;;;;13.82;3.33;;;14.00;99.90;;;;;;5077916;28;20507;-82
2023/10/05 04:18:54;;;;;;;12.93;3.50;;;14.00;99.90;;;;;;5092523;28;20044;-82
2023/10/05 04:21:22;;;;;;;11.50;3.53;;;14.00;99.90;;;;;;5079323;28;20081;-82
2023/10/05 04:23:56;;;;;;;13.15;3.70;;;14.00;99.90;;;;;;5080838;28;20050;-82
2023/10/05 04:26:26;;;;;;;12.38;3.60;;;14.00;99.90;;;;;;5089621;28;20081;-82
2023/10/05 04:28:54;;;;;;;10.35;3.42;;;14.00;99.90;;;;;;5074621;28;20032;-82
2023/10/05 04:31:27;;;;;;;11.90;3.58;;;14.00;99.90;;;;;;5080880;28;20471;-82
2023/10/05 04:33:57;;;;;;;15.40;3.92;;;14.00;99.90;;;;;;5081470;28;20039;-82
2023/10/05 04:36:26;;;;;;;10.75;3.63;;;14.00;99.90;;;;;;5075382;28;20131;-82
2023/10/05 04:38:54;;;;;;;12.80;3.55;;;14.00;99.90;;;;;;5103298;28;20039;-82
2023/10/05 04:41:31;;;;;;;13.75;3.42;;;14.00;99.90;;;;;;5076979;28;20036;-82
2023/10/05 04:44:00;;;;;;;16.02;3.92;;;14.00;99.90;;;;;;5072108;28;20044;-82
2023/10/05 04:46:28;;;;;;;14.38;4.43;;;14.00;99.90;;;;;;5093361;28;20127;-82
2023/10/05 04:48:55;;;;;;;11.25;3.85;;;14.00;99.90;;;;;;5082900;28;20150;-82
2023/10/05 04:51:30;;;;;;;11.77;3.90;;;14.00;99.90;;;;;;5078122;28;20052;-82
2023/10/05 04:53:59;;;;;;;9.65;3.50;;;14.00;99.90;;;;;;5072451;28;20050;-82
2023/10/05 04:56:35;;;;;;;12.27;3.40;;;14.00;99.90;;;;;;5099949;28;20082;-82
2023/10/05 05:06:59;;;;;;;13.82;3.90;;;14.10;99.90;;;;;;5072651;28;20051;-82
2023/10/05 05:09:29;;;;;;;13.38;3.55;;;14.10;99.90;;;;;;5078942;28;20578;-81
2023/10/05 05:12:03;;;;;;;13.80;3.83;;;14.10;99.90;;;;;;5072969;28;20495;-82
2023/10/05 05:14:37;;;;;;;12.95;3.70;;;14.10;99.90;;;;;;5083623;28;20503;-82
2023/10/05 05:17:06;;;;;;;19.10;3.58;;;14.10;99.90;;;;;;5075205;28;20127;-82
2023/10/05 05:19:35;;;;;;;11.77;3.50;;;14.10;99.90;;;;;;5072957;28;20093;-82
2023/10/05 05:22:02;;;;;;;12.77;3.92;;;14.10;99.90;;;;;;5071733;28;20035;-82
2023/10/05 05:24:29;;;;;;;13.18;3.72;;;14.00;99.90;;;;;;5076906;28;20048;-82
2023/10/05 05:27:01;;;;;;;11.85;3.92;;;14.00;99.90;;;;;;5105346;28;20055;-82
2023/10/05 05:29:34;;;;;;;14.70;3.97;;;14.00;99.90;;;;;;5090652;28;20101;-82
2023/10/05 05:32:36;;;;;;;14.80;4.43;;;14.00;99.90;;;;;;5077063;28;20056;-82
2023/10/05 05:34:55;;;;;;;11.75;4.00;;;14.00;99.90;;;;;;5070411;28;20285;-82
2023/10/05 05:37:29;;;;;;;14.63;4.40;;;13.90;99.90;;;;;;5102599;28;20132;-82
2023/10/05 05:39:57;;;;;;;11.52;4.28;;;13.90;99.90;;;;;;5071927;28;20050;-77
2023/10/05 05:42:25;;;;;;;11.40;4.10;;;13.90;99.90;;;;;;5074276;28;20052;-81
2023/10/05 05:44:52;;;;;;;13.40;4.07;;;13.90;99.90;;;;;;5075519;28;20051;-82
2023/10/05 05:47:18;;;;;;;12.18;3.92;;;13.90;99.90;;;;;;5073320;28;20676;-82
2023/10/05 05:49:47;;;;;;;13.10;3.95;;;13.90;99.90;;;;;;5078881;28;20051;-82
2023/10/05 05:52:14;;;;;;;10.75;3.85;;;13.90;99.90;;;;;;5079992;28;20706;-82
2023/10/05 05:54:42;;;;;;;13.32;4.22;;;13.90;99.90;;;;;;5104911;28;20102;-82
2023/10/05 05:57:11;;;;;;;14.23;4.13;;;13.90;99.90;;;;;;5083591;28;20052;-83
2023/10/05 05:59:38;;;;;;;12.02;4.05;;;13.90;99.90;;;;;;5105639;28;20036;-85
2023/10/05 06:02:07;;;;;;;13.48;4.03;;;13.90;99.90;;;;;;5074461;28;20050;-85
2023/10/05 06:04:36;;;;;;;14.60;4.65;;;13.90;99.90;;;;;;5093109;28;20526;-84
2023/10/05 06:07:11;;;;;;;11.63;4.00;;;13.90;99.90;;;;;;5075784;28;20090;-85
2023/10/05 06:09:39;;;;;;;16.92;4.30;;;13.90;99.90;;;;;;5082856;28;20036;-85
2023/10/05 06:12:05;;;;;;;12.30;4.00;;;13.90;99.90;;;;;;5073338;28;20052;-85
2023/10/05 06:14:34;;;;;;;11.27;4.20;;;13.90;99.90;;;;;;5080917;28;20044;-85
2023/10/05 06:17:00;;;;;;;15.57;4.07;;;13.90;99.90;;;;;;5078493;28;20052;-85
2023/10/05 06:19:27;;;;;;;15.27;4.30;;;14.00;99.90;;;;;;5072987;28;20039;-83
2023/10/05 06:21:53;;;;;;;13.90;4.80;;;14.00;99.90;;;;;;5072727;28;20069;-85
2023/10/05 06:24:18;;;;;;;11.70;3.95;;;14.00;99.90;;;;;;5090568;28;20047;-85
2023/10/05 06:26:45;;;;;;;14.95;4.55;;;14.00;99.90;;;;;;5084853;28;20052;-86
2023/10/05 06:29:13;;;;;;;14.35;4.20;;;14.00;99.90;;;;;;5075932;28;20050;-85
2023/10/05 06:31:40;;;;;;;13.93;4.10;;;14.00;99.90;;;;;;5074123;28;20887;-84
2023/10/05 06:34:09;;;;;;;11.48;3.55;;;14.10;99.90;;;;;;5074371;28;20051;-86
2023/10/05 06:36:39;;;;;;;13.88;4.68;;;14.10;99.90;;;;;;5076754;28;20056;-86
2023/10/05 06:39:14;;;;;;;13.93;3.95;;;14.10;99.90;;;;;;5070541;28;21118;-85
2023/10/05 06:41:45;;;;;;;11.68;3.70;;;14.10;99.90;;;;;;5064294;28;20047;-86
2023/10/05 06:44:11;;;;;;;14.30;4.35;;;14.10;99.90;;;;;;5072080;28;20139;-86
2023/10/05 06:46:40;;;;;;;14.70;4.05;;;14.20;99.90;;;;;;5070599;28;20315;-85
2023/10/05 06:49:06;;;;;;;12.55;3.85;;;14.10;99.90;;;;;;5077948;28;20047;-86
2023/10/05 06:51:32;;;;;;;14.43;4.93;;;14.10;99.90;;;;;;5098901;28;20035;-86
2023/10/05 06:53:58;;;;;;;15.30;4.10;;;14.20;99.90;;;;;;5076739;28;20054;-84
2023/10/05 06:56:24;;;;;;;11.90;4.20;;;14.20;99.90;;;;;;5096010;28;20044;-82
2023/10/05 06:58:50;;;;;;;12.90;4.47;;;14.20;99.90;;;;;;5081643;28;20048;-81
2023/10/05 07:01:20;;;;;;;12.65;4.13;;;14.20;99.90;;;;;;5073968;28;20047;-75
2023/10/05 07:03:53;;;;;;;10.48;3.95;;;14.30;99.90;;;;;;5072031;28;20055;-82
2023/10/05 07:06:21;;;;;;;12.07;3.88;;;14.30;99.90;;;;;;5100127;28;20043;-83
2023/10/05 07:08:46;;;;;;;11.27;4.25;;;14.30;99.90;;;;;;5089961;28;20115;-75
2023/10/05 07:11:12;;;;;;;15.20;4.53;;;14.30;99.90;;;;;;5094212;28;20131;-78
2023/10/05 07:13:38;;;;;;;14.05;4.30;;;14.30;99.90;;;;;;5081032;28;20044;-75
2023/10/05 07:16:05;;;;;;;10.70;4.20;;;14.40;99.90;;;;;;5083307;28;20131;-78
2023/10/05 07:18:31;;;;;;;12.85;4.00;;;14.40;99.90;;;;;;5071905;28;20043;-78
2023/10/05 07:20:57;;;;;;;13.88;4.32;;;14.40;99.90;;;;;;5088359;28;20039;-78
2023/10/05 07:23:23;;;;;;;13.85;4.10;;;14.50;99.90;;;;;;5071387;28;20048;-78
2023/10/05 07:25:49;;;;;;;11.50;4.32;;;14.50;99.90;;;;;;5077571;28;20099;-78
2023/10/05 07:28:15;;;;;;;14.00;4.90;;;14.60;99.90;;;;;;5076663;28;20096;-77
2023/10/05 07:30:43;;;;;;;14.25;4.70;;;14.60;99.90;;;;;;5084842;28;20110;-81
2023/10/05 07:33:08;;;;;;;11.15;4.00;;;14.60;99.90;;;;;;5087469;28;20060;-80
2023/10/05 07:35:36;;;;;;;12.88;4.68;;;14.60;99.90;;;;;;5080267;28;20585;-80
2023/10/05 07:38:02;;;;;;;12.00;4.10;;;14.60;99.90;;;;;;5075942;28;20055;-79
2023/10/05 07:40:28;;;;;;;10.35;4.55;;;14.60;99.90;;;;;;5070863;28;20395;-81
2023/10/05 07:42:54;;;;;;;11.98;4.40;;;14.70;99.90;;;;;;5082656;28;20506;-82
2023/10/05 07:45:19;;;;;;;11.95;4.25;;;14.70;99.90;;;;;;5074477;28;20044;-80
2023/10/05 07:47:49;;;;;;;12.70;4.50;;;14.70;99.90;;;;;;5076064;28;20368;-80
2023/10/05 07:50:15;;;;;;;13.18;4.75;;;14.70;99.90;;;;;;5059266;28;20048;-81
2023/10/05 07:52:44;;;;;;;12.45;4.05;;;14.70;99.90;;;;;;5068332;28;20118;-84
2023/10/05 07:55:10;;;;;;;12.57;4.18;;;14.80;99.90;;;;;;5075619;28;20115;-83
2023/10/05 07:57:36;;;;;;;14.45;4.75;;;14.80;99.90;;;;;;5070783;28;20043;-83
2023/10/05 08:00:03;;;;;;;10.68;4.20;;;14.80;99.90;;;;;;5091328;28;20036;-78
2023/10/05 08:02:29;;;;;;;15.02;4.30;;;14.80;99.90;;;;;;5071471;28;20052;-83
2023/10/05 08:04:55;;;;;;;16.77;4.45;;;14.90;99.90;;;;;;5093027;28;20076;-80
2023/10/05 08:07:21;;;;;;;11.35;4.28;;;14.90;99.90;;;;;;5062867;28;20113;-78
2023/10/05 08:09:46;;;;;;;13.85;4.53;;;14.90;99.90;;;;;;5083501;28;20067;-76
2023/10/05 08:12:12;;;;;;;13.55;4.10;;;15.00;99.90;;;;;;5077056;28;20118;-80
2023/10/05 08:14:39;;;;;;;13.20;4.30;;;15.10;99.90;;;;;;5074222;28;20479;-82
2023/10/05 08:17:05;;;;;;;12.57;4.50;;;15.10;99.90;;;;;;5092591;28;20058;-82
2023/10/05 08:19:31;;;;;;;14.15;4.53;;;15.10;99.90;;;;;;5082157;28;20070;-82
2023/10/05 08:21:56;;;;;;;14.50;4.45;;;15.20;99.90;;;;;;5075485;28;20510;-80
2023/10/05 08:24:23;;;;;;;12.95;4.20;;;15.20;99.90;;;;;;5072024;28;20055;-80
2023/10/05 08:26:53;;;;;;;10.43;3.85;;;15.30;99.90;;;;;;5075478;28;20522;-85
2023/10/05 08:29:22;;;;;;;11.95;3.50;;;15.30;99.90;;;;;;5085113;28;20032;-88
2023/10/05 08:31:52;;;;;;;14.45;4.53;;;15.40;99.90;;;;;;5082759;28;20048;-88
2023/10/05 08:34:21;;;;;;;19.00;4.40;;;15.50;99.90;;;;;;5095255;28;20040;-79
2023/10/05 08:36:54;;;;;;;11.85;3.80;;;15.50;99.90;;;;;;5070703;28;20077;-74
2023/10/05 08:39:27;;;;;;;13.40;3.92;;;15.60;99.90;;;;;;5091880;28;20047;-80
2023/10/05 08:42:06;;;;;;;12.38;4.00;;;15.60;99.90;;;;;;5071836;28;20046;-80
2023/10/05 08:44:36;;;;;;;14.27;4.18;;;15.60;99.90;;;;;;5070271;28;20364;-79
2023/10/05 08:47:05;;;;;;;15.90;4.78;;;15.70;99.90;;;;;;5071740;28;20125;-80
2023/10/05 08:49:34;;;;;;;12.48;3.63;;;15.70;99.90;;;;;;5087789;28;20052;-77
2023/10/05 08:52:09;;;;;;;12.05;3.80;;;15.80;99.90;;;;;;5070945;28;20490;-76
2023/10/05 08:54:35;;;;;;;14.75;4.38;;;15.80;99.90;;;;;;5104058;28;20066;-79
2023/10/05 08:57:09;;;;;;;13.93;4.50;;;15.90;99.90;;;;;;5069021;28;20051;-87
2023/10/05 08:59:39;;;;;;;16.77;4.28;;;16.00;99.90;;;;;;5074808;28;20529;-81
2023/10/05 09:02:08;;;;;;;14.88;4.85;;;16.00;99.90;;;;;;5099849;28;20039;-81
2023/10/05 09:04:47;;;;;;;13.02;4.03;;;16.00;99.90;;;;;;5074588;28;20466;-81
2023/10/05 09:07:37;;;;;;;14.13;4.30;;;16.00;99.90;;;;;;5084798;28;20160;-81
2023/10/05 09:10:08;;;;;;;16.73;5.03;;;16.00;99.90;;;;;;5102391;28;20050;-82
2023/10/05 09:12:34;;;;;;;13.50;3.88;;;16.10;99.90;;;;;;5080124;28;20040;-80
2023/10/05 09:15:22;;;;;;;14.90;4.07;;;16.10;99.90;;;;;;5073101;28;20092;-81
2023/10/05 09:17:57;;;;;;;11.63;3.85;;;16.10;99.90;;;;;;5099945;28;20047;-90
2023/10/05 09:20:31;;;;;;;15.95;4.05;;;16.20;99.90;;;;;;5075040;28;20089;-86
2023/10/05 09:23:09;;;;;;;16.75;4.97;;;16.20;99.90;;;;;;5102006;28;20120;-79
2023/10/05 09:25:47;;;;;;;12.70;3.80;;;16.30;99.90;;;;;;5074638;28;20052;-79
2023/10/05 09:28:34;;;;;;;13.85;3.90;;;16.30;99.90;;;;;;5078744;28;20047;-77
2023/10/05 09:30:59;;;;;;;15.45;4.15;;;16.40;99.90;;;;;;5082016;28;20039;-80
2023/10/05 09:33:34;;;;;;;14.27;4.28;;;16.40;99.90;;;;;;5086900;28;20159;-82
2023/10/05 09:36:19;;;;;;;13.45;4.07;;;16.40;99.90;;;;;;5074046;28;20048;-83
2023/10/05 09:38:46;;;;;;;13.27;3.72;;;16.50;99.90;;;;;;5074143;28;20097;-84
2023/10/05 09:41:17;;;;;;;13.23;3.88;;;16.50;99.90;;;;;;5073550;28;20044;-82
2023/10/05 09:43:44;;;;;;;14.88;4.28;;;16.50;99.90;;;;;;5094409;28;20051;-82
2023/10/05 09:46:10;;;;;;;16.63;4.47;;;16.50;99.90;;;;;;5072313;28;20044;-81
2023/10/05 09:48:40;;;;;;;16.03;3.90;;;16.50;99.90;;;;;;5094282;28;20044;-81
2023/10/05 09:51:10;;;;;;;12.60;4.10;;;16.50;99.90;;;;;;5083045;28;20036;-80
2023/10/05 09:53:38;;;;;;;12.05;3.70;;;16.50;99.90;;;;;;5073039;28;20084;-84
2023/10/05 09:56:04;;;;;;;21.23;4.30;;;16.50;99.90;;;;;;5073910;28;20067;-83
2023/10/05 09:58:30;;;;;;;18.40;4.63;;;16.50;99.90;;;;;;5073393;28;20085;-82
2023/10/05 10:00:57;;;;;;;13.02;4.13;;;16.50;99.90;;;;;;5073452;28;20515;-88
2023/10/05 10:03:23;;;;;;;12.13;3.90;;;16.50;99.90;;;;;;5072975;28;20461;-74
2023/10/05 10:05:55;;;;;;;15.65;3.92;;;16.50;99.90;;;;;;5077399;28;20087;-78
2023/10/05 10:08:29;;;;;;;17.52;4.43;;;16.50;99.90;;;;;;5071401;28;20551;-83
2023/10/05 10:11:18;;;;;;;14.05;4.40;;;16.50;99.90;;;;;;5078003;28;20057;-80
2023/10/05 10:13:52;;;;;;;16.38;4.22;;;16.60;99.90;;;;;;5092844;28;20119;-76
2023/10/05 10:16:22;;;;;;;11.80;3.88;;;16.60;99.90;;;;;;5072670;28;20430;-83
2023/10/05 10:19:08;;;;;;;19.27;4.60;;;16.60;99.90;;;;;;5071631;28;20036;-78
2023/10/05 10:21:41;;;;;;;15.23;4.10;;;16.70;99.90;;;;;;5080130;28;20036;-81
2023/10/05 10:24:12;;;;;;;16.00;4.25;;;16.70;99.90;;;;;;5085433;28;20039;-85
2023/10/05 10:27:11;;;;;;;15.75;4.28;;;16.70;99.90;;;;;;5080129;28;20039;-93
2023/10/05 10:29:51;;;;;;;16.75;4.28;;;16.70;99.90;;;;;;5092276;28;20064;-84
2023/10/05 10:32:18;;;;;;;12.50;3.78;;;16.80;99.90;;;;;;5090425;28;20536;-84
2023/10/05 10:34:52;;;;;;;16.35;3.95;;;16.80;99.90;;;;;;5072297;28;20079;-85
2023/10/05 10:37:40;;;;;;;20.25;4.30;;;16.90;99.90;;;;;;5073417;28;20071;-85
2023/10/05 10:40:30;;;;;;;17.88;3.70;;;16.90;99.90;;;;;;5092349;28;20437;-84
2023/10/05 10:45:32;;;;;;;14.88;3.92;;;17.00;99.90;;;;;;5078412;28;20134;-78
2023/10/05 10:47:59;;;;;;;;;;;17.10;99.90;;;;;;5093289;28;20062;-85
2023/10/05 10:50:31;;;;;;;12.68;4.05;;;17.00;99.90;;;;;;5091541;28;19931;-94
2023/10/05 10:52:58;;;;;;;17.13;3.75;;;17.10;99.90;;;;;;5090077;28;20119;-87
2023/10/05 10:55:31;;;;;;;14.23;4.05;;;17.10;99.90;;;;;;5078200;28;20052;-76
2023/10/05 10:57:59;;;;;;;13.80;4.20;;;17.20;99.90;;;;;;5075590;28;20072;-76
2023/10/05 11:03:15;;;;;;;13.13;4.00;;;17.20;99.90;;;;;;5088748;28;20056;-76
2023/10/05 11:05:52;;;;;;;14.43;3.60;;;17.20;99.90;;;;;;5072484;28;20104;-79
2023/10/05 11:08:21;;;;;;;12.40;3.85;;;17.30;99.90;;;;;;5081002;28;20442;-84
2023/10/05 11:11:00;;;;;;;17.92;3.92;;;17.30;99.90;;;;;;5074297;28;20051;-85
2023/10/05 11:13:27;;;;;;;9.75;3.22;;;17.40;99.90;;;;;;5078623;28;20040;-80
2023/10/05 11:15:59;;;;;;;16.17;4.20;;;17.40;99.90;;;;;;5096618;28;20047;-81
2023/10/05 11:18:38;;;;;;;12.82;4.00;;;17.50;99.90;;;;;;5068450;28;20927;-80
2023/10/05 11:21:16;;;;;;;13.52;3.80;;;17.50;99.90;;;;;;5068066;28;20076;-82
2023/10/05 11:23:56;;;;;;;14.32;3.70;;;17.60;99.90;;;;;;5088674;28;20138;-82
2023/10/05 11:26:56;;;;;;;13.75;3.70;;;17.70;99.90;;;;;;5086472;28;20052;-79
2023/10/05 11:29:29;;;;;;;18.67;4.40;;;17.70;99.90;;;;;;5071309;28;20044;-79
2023/10/05 11:32:12;;;;;;;20.13;4.75;;;17.80;99.90;;;;;;5073235;28;20494;-79
2023/10/05 11:34:39;;;;;;;13.43;3.58;;;17.90;99.90;;;;;;5079785;28;20075;-75
2023/10/05 11:37:15;;;;;;;;;;;17.90;99.90;;;;;;5093902;28;20049;-78
2023/10/05 11:39:50;;;;;;;15.57;3.30;;;18.00;99.90;;;;;;5094115;28;19927;-78
2023/10/05 11:42:26;;;;;;;12.90;3.92;;;17.90;99.90;;;;;;5075488;28;20051;-80
2023/10/05 11:44:55;;;;;;;18.90;3.55;;;17.90;99.90;;;;;;5070185;28;20059;-79
2023/10/05 11:47:41;;;;;;;17.50;4.18;;;18.00;99.90;;;;;;5071635;28;20040;-83
2023/10/05 11:50:51;;;;;;;16.00;3.55;;;18.00;99.90;;;;;;5088150;28;20047;-78
2023/10/05 11:53:11;;;;;;;21.80;4.30;;;18.10;99.90;;;;;;5070727;28;20070;-78
2023/10/05 11:55:39;;;;;;;20.25;4.32;;;18.10;99.90;;;;;;5071582;28;20469;-77
2023/10/05 11:58:08;;;;;;;15.25;3.90;;;18.00;99.90;;;;;;5070116;28;20073;-78
2023/10/05 12:00:35;;;;;;;18.35;4.38;;;17.90;99.90;;;;;;5072664;28;20598;-79
2023/10/05 12:03:01;;;;;;;15.52;4.13;;;17.80;99.90;;;;;;5070519;28;20047;-79
2023/10/05 12:05:30;;;;;;;16.10;3.78;;;17.80;99.90;;;;;;5091861;28;20086;-80
2023/10/05 12:07:59;;;;;;;18.60;4.43;;;17.70;99.90;;;;;;5074034;28;20047;-79
2023/10/05 12:10:25;;;;;;;13.15;4.18;;;17.60;99.90;;;;;;5071344;28;20130;-79
2023/10/05 12:12:51;;;;;;;14.15;4.05;;;17.60;99.90;;;;;;5079961;28;20086;-79
2023/10/05 12:15:17;;;;;;;13.23;3.60;;;17.50;99.90;;;;;;5078644;28;20079;-86
2023/10/05 12:17:45;;;;;;;15.02;3.92;;;17.50;99.90;;;;;;5068645;28;20044;-84
2023/10/05 12:20:15;;;;;;;11.82;3.80;;;17.60;99.90;;;;;;5079978;28;20040;-84
2023/10/05 12:22:42;;;;;;;11.73;4.38;;;17.50;99.90;;;;;;5074829;28;20507;-85
2023/10/05 12:25:09;;;;;;;12.00;4.00;;;17.40;99.90;;;;;;5080538;28;20036;-83
2023/10/05 12:27:35;;;;;;;13.85;4.00;;;17.30;99.90;;;;;;5093006;28;20399;-82
2023/10/05 12:30:10;;;;;;;7.85;3.10;;;17.10;99.90;;;;;;5103442;28;20047;-79
2023/10/05 12:32:38;;;;;;;7.55;3.20;;;17.00;99.90;;;;;;5092512;28;20079;-84
2023/10/05 12:35:06;;;;;;;9.32;3.20;;;16.80;99.90;;;;;;5072101;28;20450;-85
2023/10/05 12:37:32;;;;;;;8.15;3.25;;;16.80;99.90;;;;;;5069725;28;20036;-86
2023/10/05 12:40:11;;;;;;;9.10;3.07;;;16.80;99.90;;;;;;5071627;28;20073;-81
2023/10/05 12:42:37;;;;;;;8.30;3.10;;;16.80;99.90;;;;;;5075552;28;20036;-81
2023/10/05 12:45:04;;;;;;;12.40;3.65;;;16.80;99.90;;;;;;5068702;28;20063;-80
2023/10/05 12:47:30;;;;;;;8.90;3.13;;;16.80;99.90;;;;;;5076356;28;20056;-80
2023/10/05 12:49:56;;;;;;;10.43;3.63;;;16.80;99.90;;;;;;5070379;28;20044;-80
2023/10/05 12:52:23;;;;;;;10.38;3.60;;;16.80;99.90;;;;;;5073841;28;20055;-79
2023/10/05 12:54:49;;;;;;;11.73;3.80;;;16.90;99.90;;;;;;5098500;28;20089;-81
2023/10/05 12:57:15;;;;;;;15.10;3.92;;;16.90;99.90;;;;;;5067575;28;20525;-80
2023/10/05 12:59:42;;;;;;;10.93;3.63;;;17.00;99.90;;;;;;5075484;28;20063;-81
2023/10/05 13:02:15;;;;;;;13.93;3.88;;;17.10;99.90;;;;;;5074545;28;20102;-82
2023/10/05 13:04:42;;;;;;;12.48;4.38;;;17.30;99.90;;;;;;5081828;28;20044;-81
2023/10/05 13:07:08;;;;;;;10.43;3.67;;;17.30;99.90;;;;;;5077142;28;20048;-80
2023/10/05 13:09:34;;;;;;;12.05;4.03;;;17.40;99.90;;;;;;5071548;28;20043;-79
2023/10/05 13:12:08;;;;;;;12.07;3.97;;;17.40;99.90;;;;;;5073183;28;20048;-82